Time;durP1;ratioP1;P1;durP2;ratioP2;P2;SDS_P1;SDS_P2;PMS_P1;PMS_P2;Temp;Humidity;BMP_temperature;BMP_pressure;BME280_temperature;BME280_humidity;BME280_pressure;Samples;Min_cycle;Max_cycle;Signal;HPM_P1;HPM_P2
2024/03/25 00:03:52;;;;;;;4.10;1.53;;;;;;;17.15;55.34;100543.31;10365491;28;20302;-57
2024/03/25 00:08:53;;;;;;;4.80;1.97;;;;;;;17.20;55.97;100535.22;10364650;28;20279;-56
2024/03/25 00:13:53;;;;;;;5.35;2.03;;;;;;;17.19;56.08;100534.44;10365066;28;20406;-57
2024/03/25 00:18:53;;;;;;;6.00;1.70;;;;;;;17.21;55.99;100532.25;10364749;28;20131;-56
2024/03/25 00:23:56;;;;;;;3.67;1.70;;;;;;;17.25;55.96;100527.09;10365247;28;20776;-57
2024/03/25 00:28:56;;;;;;;4.75;1.95;;;;;;;17.23;56.33;100531.97;10364565;28;20568;-57
2024/03/25 00:33:57;;;;;;;4.40;1.87;;;;;;;17.22;55.02;100523.13;10365016;28;20116;-57
2024/03/25 00:38:57;;;;;;;3.70;1.73;;;;;;;17.23;56.21;100524.72;10364447;28;20319;-57
2024/03/25 00:43:57;;;;;;;3.13;1.53;;;;;;;17.21;55.86;100529.56;10364758;28;20315;-56
2024/03/25 00:48:58;;;;;;;3.22;1.67;;;;;;;17.23;54.66;100515.88;10363296;28;20323;-56
2024/03/25 00:53:58;;;;;;;4.83;1.77;;;;;;;17.23;55.99;100510.53;10364505;28;20064;-58
2024/03/25 00:59:02;;;;;;;3.90;1.33;;;;;;;17.21;55.41;100510.81;10364162;28;20416;-58
2024/03/25 01:04:02;;;;;;;3.97;1.50;;;;;;;17.23;55.00;100516.69;10364531;28;20330;-56
2024/03/25 01:09:04;;;;;;;3.83;1.25;;;;;;;17.23;55.34;100519.34;10363939;28;20076;-58
2024/03/25 01:14:04;;;;;;;3.83;1.20;;;;;;;17.28;55.14;100520.34;10364070;28;20056;-57
2024/03/25 01:19:05;;;;;;;2.60;1.27;;;;;;;17.28;55.23;100526.50;10348591;28;20034;-56
2024/03/25 01:24:05;;;;;;;3.87;1.43;;;;;;;17.27;55.47;100535.63;10371704;28;20388;-57
2024/03/25 01:29:05;;;;;;;4.05;1.63;;;;;;;17.28;55.85;100531.88;10371552;28;20311;-57
2024/03/25 01:34:06;;;;;;;4.70;1.50;;;;;;;17.28;54.50;100533.75;10371766;28;20084;-58
2024/03/25 01:39:06;;;;;;;3.03;1.17;;;;;;;17.28;54.28;100537.22;10370602;28;20301;-57
2024/03/25 01:44:07;;;;;;;3.28;1.10;;;;;;;17.31;55.40;100534.00;10371265;28;20287;-58
2024/03/25 01:49:07;;;;;;;3.70;1.40;;;;;;;17.32;54.05;100542.81;10371008;28;20482;-56
2024/03/25 01:54:08;;;;;;;5.28;2.25;;;;;;;17.33;54.38;100544.41;10370523;28;20124;-57
2024/03/25 01:59:08;;;;;;;2.45;1.40;;;;;;;17.32;54.63;100548.19;10368689;28;20030;-57
2024/03/25 02:04:09;;;;;;;3.75;1.63;;;;;;;17.29;55.09;100538.06;10369591;28;20026;-57
2024/03/25 02:09:10;;;;;;;2.83;0.98;;;;;;;17.28;55.44;100547.16;10369797;28;20038;-56
2024/03/25 02:14:10;;;;;;;5.50;1.55;;;;;;;17.31;55.02;100546.59;10341536;28;20061;-58
2024/03/25 02:19:13;;;;;;;4.37;1.50;;;;;;;17.28;55.16;100550.63;10369343;28;20038;-58
2024/03/25 02:24:14;;;;;;;3.13;1.92;;;;;;;17.25;54.79;100537.81;10368269;28;20621;-56
2024/03/25 02:29:14;;;;;;;4.10;1.60;;;;;;;17.30;54.65;100545.81;10367140;28;20014;-55
2024/03/25 02:34:14;;;;;;;2.97;1.23;;;;;;;17.33;55.31;100545.22;10369698;28;20036;-57
2024/03/25 02:39:15;;;;;;;5.83;1.30;;;;;;;17.37;54.66;100553.47;10367161;28;20288;-57
2024/03/25 02:44:16;;;;;;;3.38;1.50;;;;;;;17.34;54.61;100549.47;10367306;28;20284;-57
2024/03/25 02:49:16;;;;;;;5.10;1.50;;;;;;;17.38;53.53;100547.00;10368840;28;20476;-56
2024/03/25 02:54:17;;;;;;;4.20;1.10;;;;;;;17.37;53.41;100543.53;10348763;28;20417;-56
2024/03/25 02:59:17;;;;;;;4.13;1.30;;;;;;;17.37;53.82;100542.75;10367901;28;20299;-57
2024/03/25 03:04:17;;;;;;;5.70;1.40;;;;;;;17.35;53.43;100524.28;10368090;28;20283;-57
2024/03/25 03:09:17;;;;;;;4.83;1.63;;;;;;;17.37;54.94;100537.38;10367912;28;20045;-57
2024/03/25 03:14:18;;;;;;;5.00;1.20;;;;;;;17.39;53.28;100536.00;10366867;28;20296;-58
2024/03/25 03:19:18;;;;;;;3.87;1.67;;;;;;;17.35;54.25;100529.63;10366454;28;20371;-56
2024/03/25 03:24:19;;;;;;;3.70;1.43;;;;;;;17.39;54.19;100538.66;10367067;28;20786;-58
2024/03/25 03:29:19;;;;;;;4.63;1.40;;;;;;;17.37;54.20;100530.13;10365073;28;20273;-58
2024/03/25 03:34:19;;;;;;;5.33;1.50;;;;;;;17.37;54.68;100529.34;10365994;28;20022;-57
2024/03/25 03:39:20;;;;;;;3.67;1.23;;;;;;;17.40;53.97;100536.78;10366230;28;20296;-56
2024/03/25 03:44:20;;;;;;;4.60;1.67;;;;;;;17.37;53.74;100530.13;10364690;28;20791;-57
2024/03/25 03:49:21;;;;;;;4.22;1.77;;;;;;;17.35;53.55;100526.16;10365712;28;20330;-57
2024/03/25 03:54:21;;;;;;;4.55;1.55;;;;;;;17.34;53.36;100524.56;10366621;28;20057;-56
2024/03/25 03:59:21;;;;;;;3.97;1.83;;;;;;;17.35;52.79;100523.47;10365380;28;20030;-56
2024/03/25 04:04:22;;;;;;;6.80;1.97;;;;;;;17.31;53.67;100511.75;10365739;28;20042;-57
2024/03/25 04:09:23;;;;;;;2.93;1.07;;;;;;;17.31;52.89;100517.91;10365322;28;20296;-57
2024/03/25 04:14:23;;;;;;;3.08;1.33;;;;;;;17.33;53.16;100522.97;10363821;28;20304;-57
2024/03/25 04:19:24;;;;;;;5.00;1.57;;;;;;;17.31;53.55;100515.22;10365278;28;20469;-55
2024/03/25 04:24:26;;;;;;;3.67;1.58;;;;;;;17.31;53.44;100525.94;10365994;28;20275;-57
2024/03/25 04:29:27;;;;;;;3.92;1.38;;;;;;;17.32;53.47;100521.38;10364732;28;20054;-57
2024/03/25 04:34:27;;;;;;;3.23;1.57;;;;;;;17.32;52.25;100521.38;10363824;28;20080;-57
2024/03/25 04:39:27;;;;;;;2.10;1.00;;;;;;;17.30;52.71;100512.84;10364918;28;20331;-56
2024/03/25 04:44:28;;;;;;;2.20;1.07;;;;;;;17.31;53.23;100520.59;10364343;28;20030;-56
2024/03/25 04:49:28;;;;;;;2.37;0.93;;;;;;;17.32;53.23;100522.19;10364539;28;20279;-56
2024/03/25 04:54:28;;;;;;;3.77;1.23;;;;;;;17.31;53.08;100520.59;10368081;28;20632;-58
2024/03/25 04:59:29;;;;;;;3.30;1.10;;;;;;;17.33;53.19;100518.41;10372806;28;20292;-56
2024/03/25 05:04:29;;;;;;;5.13;1.60;;;;;;;17.32;52.39;100519.50;10372165;28;20280;-58
2024/03/25 05:09:29;;;;;;;3.88;1.40;;;;;;;17.33;52.70;100517.63;10372196;28;20257;-57
2024/03/25 05:14:30;;;;;;;4.13;1.27;;;;;;;17.31;53.46;100525.16;10368583;28;20050;-57
2024/03/25 05:19:31;;;;;;;2.13;0.90;;;;;;;17.25;53.52;100530.56;10370925;28;20792;-58
2024/03/25 05:24:31;;;;;;;4.57;1.95;;;;;;;17.28;53.48;100534.56;10373108;28;20281;-57
2024/03/25 05:29:31;;;;;;;4.13;1.50;;;;;;;17.30;53.10;100550.38;10372263;28;20022;-57
2024/03/25 05:34:31;;;;;;;3.30;1.00;;;;;;;17.34;52.39;100556.72;10372340;28;20276;-58
2024/03/25 05:39:32;;;;;;;3.92;1.10;;;;;;;17.29;53.19;100562.19;10370418;28;20284;-58
2024/03/25 05:44:32;;;;;;;2.40;0.93;;;;;;;17.30;53.63;100569.13;10370700;28;20025;-59
2024/03/25 05:49:32;;;;;;;2.10;1.50;;;;;;;17.30;52.75;100564.56;10372538;28;20304;-58
2024/03/25 05:54:33;;;;;;;2.47;1.20;;;;;;;17.33;51.98;100552.44;10372520;28;20287;-58
2024/03/25 05:59:33;;;;;;;3.47;1.20;;;;;;;17.31;52.69;100555.44;10371515;28;20302;-58
2024/03/25 06:04:33;;;;;;;5.77;1.50;;;;;;;17.32;52.62;100543.63;10370397;28;20281;-58
2024/03/25 06:09:34;;;;;;;17.02;2.28;;;;;;;17.23;52.77;100556.88;10371398;28;20303;-58
2024/03/25 06:14:34;;;;;;;12.37;2.40;;;;;;;17.36;53.30;100547.31;10347065;28;20692;-59
2024/03/25 06:19:34;;;;;;;9.88;2.70;;;;;;;17.44;54.52;100545.84;10372751;28;20304;-59
2024/03/25 06:24:35;;;;;;;9.10;2.33;;;;;;;17.44;54.55;100541.28;10370760;28;20030;-58
2024/03/25 06:29:35;;;;;;;9.93;1.50;;;;;;;17.43;54.43;100528.97;10372149;28;20014;-59
2024/03/25 06:34:35;;;;;;;20.53;3.57;;;;;;;17.36;53.81;100531.22;10371704;28;20291;-60
2024/03/25 06:39:36;;;;;;;14.20;3.07;;;;;;;17.34;55.15;100528.03;10371880;28;20295;-61
2024/03/25 06:44:36;;;;;;;31.05;4.15;;;;;;;17.21;54.65;100539.50;10369643;28;20899;-61
2024/03/25 06:49:37;;;;;;;25.90;4.63;;;;;;;17.28;55.38;100542.59;10371451;28;20089;-62
2024/03/25 06:54:37;;;;;;;30.90;6.30;;;;;;;17.25;55.00;100543.19;10370979;28;20335;-62
2024/03/25 06:59:37;;;;;;;30.83;5.80;;;;;;;17.17;55.61;100536.59;10369985;28;20099;-59
2024/03/25 07:04:38;;;;;;;35.03;5.10;;;;;;;17.18;55.22;100548.13;10369374;28;20481;-65
2024/03/25 07:09:38;;;;;;;34.77;5.70;;;;;;;17.06;55.36;100545.88;10370923;28;20279;-64
2024/03/25 07:14:38;;;;;;;17.90;4.53;;;;;;;17.09;54.67;100536.47;10368319;28;20668;-61
2024/03/25 07:19:38;;;;;;;20.30;4.40;;;;;;;17.06;54.15;100543.19;10367531;28;20304;-61
2024/03/25 07:24:39;;;;;;;23.80;4.83;;;;;;;17.04;54.20;100552.59;10368794;28;20025;-61
2024/03/25 07:29:39;;;;;;;23.42;4.45;;;;;;;16.99;54.94;100544.63;10368377;28;20280;-61
2024/03/25 07:34:40;;;;;;;19.70;4.27;;;;;;;16.99;54.61;100545.41;10369552;28;20030;-61
2024/03/25 07:39:41;;;;;;;15.55;3.83;;;;;;;16.98;54.99;100543.03;10369024;28;20304;-61
2024/03/25 07:44:41;;;;;;;21.57;3.87;;;;;;;17.00;55.58;100532.81;10368696;28;20022;-61
2024/03/25 07:49:42;;;;;;;16.33;3.63;;;;;;;17.03;54.72;100542.97;10367038;28;20273;-61
2024/03/25 07:54:43;;;;;;;12.27;3.00;;;;;;;17.01;54.14;100540.56;10367498;28;20036;-61
2024/03/25 07:59:43;;;;;;;7.53;2.30;;;;;;;16.99;55.46;100540.06;10350698;28;20296;-61
2024/03/25 08:04:44;;;;;;;9.18;2.70;;;;;;;17.02;53.95;100550.19;10366600;28;20036;-61
2024/03/25 08:09:44;;;;;;;12.52;2.55;;;;;;;17.02;53.95;100562.78;10353960;28;20572;-61
2024/03/25 08:14:45;;;;;;;10.82;2.60;;;;;;;16.99;54.59;100556.13;10354754;28;20445;-61
2024/03/25 08:19:45;;;;;;;8.03;3.57;;;;;;;16.99;55.50;100558.81;10352769;28;20034;-61
2024/03/25 08:24:46;;;;;;;7.30;2.90;;;;;;;16.98;55.14;100553.75;10337215;28;20277;-61
2024/03/25 08:29:46;;;;;;;7.82;2.17;;;;;;;16.93;56.08;100543.91;10354075;28;20284;-61
2024/03/25 08:34:46;;;;;;;8.27;2.13;;;;;;;16.97;55.15;100555.63;10353497;28;20029;-61
2024/03/25 08:39:47;;;;;;;7.00;2.20;;;;;;;16.82;56.65;100551.28;10381917;28;20296;-61
2024/03/25 08:44:47;;;;;;;10.17;3.00;;;;;;;16.78;56.37;100560.16;10366247;28;20026;-61
2024/03/25 08:49:47;;;;;;;11.87;2.97;;;;;;;16.76;56.23;100559.66;10349088;28;20343;-61
2024/03/25 08:54:48;;;;;;;6.72;2.35;;;;;;;16.79;56.29;100572.44;10365654;28;20416;-61
2024/03/25 08:59:48;;;;;;;9.18;2.47;;;;;;;16.76;56.75;100555.09;10365996;28;20117;-61
2024/03/25 09:04:49;;;;;;;9.88;2.63;;;;;;;16.75;56.87;100552.69;10365100;28;20029;-61
2024/03/25 09:15:09;;;;;;;10.50;1.95;;;;;;;16.71;57.98;100543.66;10365072;28;20276;-60
2024/03/25 09:20:16;;;;;;;7.22;2.08;;;;;;;16.70;56.52;100532.16;10365532;28;20117;-61
2024/03/25 09:25:16;;;;;;;6.20;1.85;;;;;;;16.75;57.05;100536.63;10365315;28;20041;-60
2024/03/25 09:30:20;;;;;;;5.07;1.87;;;;;;;16.72;57.53;100546.03;10365851;28;20507;-61
2024/03/25 09:35:20;;;;;;;5.10;1.88;;;;;;;16.71;56.26;100539.09;10365149;28;20292;-61
2024/03/25 09:40:21;;;;;;;8.63;1.97;;;;;;;16.73;57.14;100533.47;10369974;28;20030;-61
2024/03/25 09:45:24;;;;;;;8.73;2.63;;;;;;;16.73;56.65;100523.53;10371047;28;20276;-59
2024/03/25 09:50:24;;;;;;;5.88;2.55;;;;;;;16.72;56.07;100523.84;10371444;28;20324;-60
2024/03/25 09:55:25;;;;;;;7.32;2.00;;;;;;;16.72;58.00;100524.63;10372365;28;20061;-60
2024/03/25 10:00:26;;;;;;;9.03;2.07;;;;;;;16.73;57.88;100517.38;10372670;28;20350;-58
2024/03/25 10:05:26;;;;;;;3.42;1.42;;;;;;;16.75;56.42;100509.88;10370425;28;20272;-59
2024/03/25 10:10:26;;;;;;;3.80;1.57;;;;;;;16.72;56.51;100502.41;10372115;28;20026;-57
2024/03/25 10:15:27;;;;;;;3.80;1.33;;;;;;;16.69;57.22;100501.09;10371093;28;20304;-59
2024/03/25 10:20:27;;;;;;;5.00;1.40;;;;;;;16.67;56.32;100490.66;10371803;28;20033;-59
2024/03/25 10:25:31;;;;;;;3.40;1.23;;;;;;;16.66;57.48;100477.53;10370718;28;20045;-59
2024/03/25 10:30:31;;;;;;;4.00;1.83;;;;;;;16.70;56.26;100483.16;10366664;28;20694;-59
2024/03/25 10:35:35;;;;;;;5.43;1.70;;;;;;;16.71;56.58;100474.84;10370100;28;20057;-58
2024/03/25 10:40:39;;;;;;;3.25;1.38;;;;;;;16.72;57.06;100472.97;10369846;28;20044;-59
2024/03/25 10:45:47;;;;;;;7.22;2.13;;;;;;;16.74;58.13;100468.13;10370359;28;20026;-59
2024/03/25 10:50:49;;;;;;;7.22;1.98;;;;;;;16.76;57.25;100460.59;10369715;28;20033;-58
2024/03/25 10:55:52;;;;;;;5.95;2.22;;;;;;;16.78;58.15;100453.06;10368841;28;20585;-57
2024/03/25 11:00:56;;;;;;;7.82;2.22;;;;;;;16.79;56.90;100438.56;10370384;28;20026;-59
2024/03/25 11:05:56;;;;;;;6.10;2.22;;;;;;;16.77;58.41;100448.78;10368503;28;20026;-58
2024/03/25 11:10:57;;;;;;;5.55;1.40;;;;;;;16.77;57.65;100436.19;10368643;28;20018;-58
2024/03/25 11:15:59;;;;;;;10.18;4.32;;;;;;;16.74;57.58;100436.78;10369048;28;20045;-58
2024/03/25 11:21:01;;;;;;;6.60;2.30;;;;;;;16.73;57.83;100439.75;10368284;28;20026;-58
2024/03/25 11:26:01;;;;;;;4.88;1.60;;;;;;;16.66;56.92;100440.84;10369317;28;20041;-59
2024/03/25 11:31:02;;;;;;;4.27;2.03;;;;;;;16.64;57.80;100431.53;10369353;28;20013;-59
2024/03/25 11:36:03;;;;;;;8.45;1.67;;;;;;;16.60;58.11;100422.50;10368422;28;20297;-58
2024/03/25 11:41:04;;;;;;;2.30;1.05;;;;;;;16.61;57.48;100416.84;10368903;28;20026;-59
2024/03/25 11:46:05;;;;;;;3.20;1.02;;;;;;;16.69;57.46;100415.41;10368700;28;20518;-58
2024/03/25 11:51:06;;;;;;;3.80;1.48;;;;;;;16.80;57.61;100397.31;10368258;28;20061;-58
2024/03/25 11:56:06;;;;;;;4.50;1.43;;;;;;;16.87;58.02;100392.41;10367653;28;20137;-59
2024/03/25 12:01:08;;;;;;;4.60;2.33;;;;;;;16.94;57.63;100387.50;10366910;28;20816;-59
2024/03/25 12:06:09;;;;;;;6.70;2.53;;;;;;;16.98;57.18;100382.34;10365326;28;20346;-57
2024/03/25 12:11:18;;;;;;;4.90;1.73;;;;;;;17.04;57.75;100384.63;10367295;28;20060;-58
2024/03/25 12:16:19;;;;;;;2.83;0.90;;;;;;;17.09;56.51;100365.00;10367488;28;20294;-58
2024/03/25 12:21:19;;;;;;;3.15;1.00;;;;;;;17.13;56.34;100360.66;10367693;28;20025;-58
2024/03/25 12:26:20;;;;;;;2.00;1.00;;;;;;;17.15;57.25;100350.44;10365694;28;20121;-58
2024/03/25 12:31:23;;;;;;;4.60;1.17;;;;;;;17.19;56.86;100341.53;10367407;28;20515;-59
2024/03/25 12:36:26;;;;;;;4.50;1.17;;;;;;;17.19;56.45;100341.53;10381884;28;20264;-57
2024/03/25 12:41:26;;;;;;;2.22;0.95;;;;;;;17.22;56.96;100324.84;10365968;28;20029;-59
2024/03/25 12:46:27;;;;;;;10.87;1.73;;;;;;;17.17;57.43;100316.91;10366479;28;20030;-60
2024/03/25 12:51:28;;;;;;;4.13;1.48;;;;;;;17.19;57.15;100311.25;10366614;28;20609;-58
2024/03/25 12:56:28;;;;;;;5.43;1.00;;;;;;;17.08;57.14;100313.31;10364954;28;20018;-59
2024/03/25 13:01:28;;;;;;;7.07;1.37;;;;;;;16.98;56.24;100316.16;10366660;28;20304;-59
2024/03/25 13:06:29;;;;;;;4.07;1.53;;;;;;;17.06;56.71;100309.34;10365766;28;20277;-60
2024/03/25 13:11:29;;;;;;;8.47;1.53;;;;;;;17.12;57.09;100305.47;10348156;28;20289;-59
2024/03/25 13:16:29;;;;;;;4.27;1.23;;;;;;;17.11;56.83;100291.28;10370807;28;20496;-59
2024/03/25 13:21:29;;;;;;;5.87;1.33;;;;;;;17.16;56.96;100277.78;10373959;28;20284;-62
2024/03/25 13:26:30;;;;;;;6.90;2.03;;;;;;;17.24;56.52;100270.97;10372016;28;20276;-57
2024/03/25 13:31:30;;;;;;;8.82;1.30;;;;;;;17.29;55.25;100262.84;10373547;28;20687;-58
2024/03/25 13:36:31;;;;;;;6.50;1.40;;;;;;;17.25;57.34;100259.16;10371854;28;20508;-58
2024/03/25 13:41:32;;;;;;;23.55;3.65;;;;;;;17.28;56.19;100247.03;10372017;28;20995;-59
2024/03/25 13:46:32;;;;;;;16.40;3.30;;;;;;;17.27;56.09;100251.59;10372951;28;20026;-58
2024/03/25 13:51:32;;;;;;;19.53;3.43;;;;;;;17.25;57.46;100243.06;10372671;28;20324;-61
2024/03/25 13:56:33;;;;;;;16.48;3.63;;;;;;;17.30;57.57;100239.53;10372625;28;20331;-56
2024/03/25 14:01:33;;;;;;;20.30;4.73;;;;;;;17.37;56.53;100226.50;10371863;28;20034;-57
2024/03/25 14:06:33;;;;;;;31.97;3.60;;;;;;;17.44;57.90;100225.03;10372398;28;20776;-59
2024/03/25 14:11:34;;;;;;;17.70;3.60;;;;;;;17.33;57.74;100218.28;10371769;28;20293;-59
2024/03/25 14:16:34;;;;;;;30.57;3.97;;;;;;;17.27;56.94;100206.06;10371066;28;20029;-58
2024/03/25 14:21:35;;;;;;;16.80;3.70;;;;;;;17.13;57.84;100200.72;10370952;28;20296;-58
2024/03/25 14:26:35;;;;;;;23.83;4.32;;;;;;;17.04;57.97;100183.75;10370939;28;20025;-58
2024/03/25 14:31:38;;;;;;;15.50;3.37;;;;;;;17.00;57.24;100177.41;10371439;28;20026;-58
2024/03/25 14:36:38;;;;;;;16.08;3.10;;;;;;;16.98;57.81;100160.03;10371291;28;20276;-59
2024/03/25 14:41:39;;;;;;;11.70;3.40;;;;;;;17.02;58.33;100147.63;10371039;28;20025;-58
2024/03/25 14:46:39;;;;;;;13.93;3.83;;;;;;;17.09;57.98;100135.44;10370866;28;20360;-59
2024/03/25 14:51:41;;;;;;;14.10;3.33;;;;;;;17.13;57.08;100123.03;10369535;28;20033;-57
2024/03/25 14:56:41;;;;;;;9.95;3.22;;;;;;;17.13;58.00;100117.66;10370605;28;20310;-61
2024/03/25 15:01:41;;;;;;;12.63;3.43;;;;;;;17.17;57.72;100116.00;10369628;28;20030;-61
2024/03/25 15:06:42;;;;;;;13.30;3.07;;;;;;;17.14;58.16;100113.09;10370181;28;20778;-62
2024/03/25 15:11:42;;;;;;;10.97;2.37;;;;;;;17.15;57.99;100107.44;10367692;28;20300;-62
2024/03/25 15:16:42;;;;;;;6.93;2.17;;;;;;;17.18;57.99;100106.06;10368600;28;20288;-62
2024/03/25 15:21:43;;;;;;;10.95;2.55;;;;;;;17.21;58.09;100092.84;10367806;28;20350;-62
2024/03/25 15:26:43;;;;;;;8.27;2.50;;;;;;;17.21;57.21;100086.72;10368069;28;20041;-61
2024/03/25 15:31:43;;;;;;;6.97;2.20;;;;;;;17.18;57.46;100084.63;10368659;28;20280;-61
2024/03/25 15:36:44;;;;;;;7.00;1.87;;;;;;;17.16;57.61;100073.41;10368817;28;20509;-61
2024/03/25 15:41:44;;;;;;;4.70;1.53;;;;;;;17.17;57.97;100078.50;10368034;28;20438;-61
2024/03/25 15:46:44;;;;;;;7.23;1.97;;;;;;;17.17;58.96;100069.66;10367251;28;20759;-60
2024/03/25 15:51:45;;;;;;;22.00;3.73;;;;;;;17.25;58.43;100067.03;10367776;28;20362;-57
2024/03/25 15:56:45;;;;;;;33.00;4.32;;;;;;;17.27;58.96;100056.00;10367128;28;20640;-57
2024/03/25 16:01:46;;;;;;;28.75;3.60;;;;;;;17.29;57.32;100059.22;10367698;28;20386;-58
2024/03/25 16:06:46;;;;;;;39.70;5.80;;;;;;;17.21;58.41;100058.03;10368395;28;20441;-58
2024/03/25 16:11:47;;;;;;;23.27;4.80;;;;;;;17.24;58.28;100044.03;10367033;28;20285;-60
2024/03/25 16:16:47;;;;;;;34.50;5.20;;;;;;;17.20;57.46;100042.25;10367644;28;20026;-58
2024/03/25 16:21:49;;;;;;;30.37;4.37;;;;;;;17.17;57.99;100038.31;10365701;28;20324;-58
2024/03/25 16:26:49;;;;;;;18.98;3.08;;;;;;;17.14;58.37;100030.84;10367057;28;20272;-59
2024/03/25 16:31:50;;;;;;;32.33;5.50;;;;;;;17.13;59.44;100031.16;10366962;28;20034;-58
2024/03/25 16:36:50;;;;;;;27.08;6.25;;;;;;;17.13;59.43;100025.78;10367260;28;20289;-60
2024/03/25 16:41:50;;;;;;;29.27;10.37;;;;;;;17.10;59.70;100027.19;10366233;28;20037;-59
2024/03/25 16:46:51;;;;;;;29.33;10.40;;;;;;;17.05;59.11;100021.97;10367697;28;20287;-57
2024/03/25 16:51:51;;;;;;;33.13;11.40;;;;;;;16.97;58.54;100014.63;10372632;28;20652;-55
2024/03/25 16:56:51;;;;;;;24.37;9.70;;;;;;;16.95;57.77;100006.13;10372978;28;20288;-60
2024/03/25 17:01:54;;;;;;;28.27;10.53;;;;;;;16.98;57.69;100000.16;10375426;28;20289;-59
2024/03/25 17:06:55;;;;;;;22.88;8.57;;;;;;;16.94;57.34;99991.16;10375004;28;20053;-55
2024/03/25 17:11:55;;;;;;;26.70;8.07;;;;;;;17.05;56.65;99987.16;10374987;28;20545;-59
2024/03/25 17:16:55;;;;;;;20.25;8.38;;;;;;;17.09;57.02;99988.13;10375075;28;20280;-57
2024/03/25 17:21:56;;;;;;;29.17;8.63;;;;;;;17.13;59.03;99991.75;10374541;28;20033;-57
2024/03/25 17:26:56;;;;;;;29.73;8.87;;;;;;;17.05;57.52;99980.97;10374791;28;20298;-59
2024/03/25 17:31:56;;;;;;;36.60;10.17;;;;;;;16.99;58.41;99985.66;10374285;28;20273;-59
2024/03/25 17:36:56;;;;;;;40.63;9.80;;;;;;;16.97;58.16;99976.34;10374529;28;20277;-60
2024/03/25 17:41:57;;;;;;;43.10;8.80;;;;;;;16.91;58.24;99978.34;10373668;28;20311;-58
2024/03/25 17:46:57;;;;;;;28.27;7.43;;;;;;;16.91;58.82;99976.47;10373674;28;20363;-58
2024/03/25 17:51:58;;;;;;;22.92;7.28;;;;;;;16.87;58.60;99966.66;10373358;28;20026;-58
2024/03/25 17:56:58;;;;;;;15.73;6.33;;;;;;;16.82;57.06;99956.88;10371127;28;20030;-58
2024/03/25 18:01:58;;;;;;;19.53;6.57;;;;;;;16.83;57.02;99960.34;10371522;28;20292;-57
2024/03/25 18:06:59;;;;;;;14.70;6.43;;;;;;;16.78;55.05;99949.72;10372891;28;20269;-59
2024/03/25 18:11:59;;;;;;;15.43;5.63;;;;;;;16.76;53.21;99951.91;10380643;28;20343;-60
2024/03/25 18:17:00;;;;;;;15.87;5.47;;;;;;;16.79;54.34;99948.63;10371916;28;20358;-59
2024/03/25 18:22:00;;;;;;;21.92;5.90;;;;;;;16.86;53.84;99943.66;10370934;28;20354;-59
2024/03/25 18:27:00;;;;;;;13.88;4.93;;;;;;;16.83;53.28;99944.28;10371345;28;20057;-59
2024/03/25 18:32:02;;;;;;;12.70;5.05;;;;;;;16.88;53.72;99942.25;10370481;28;20057;-58
2024/03/25 18:37:03;;;;;;;13.18;5.80;;;;;;;16.91;52.85;99933.63;10372039;28;20014;-59
2024/03/25 18:42:03;;;;;;;12.48;4.28;;;;;;;16.91;54.35;99933.63;10370253;28;20026;-59
2024/03/25 18:47:04;;;;;;;10.02;4.97;;;;;;;16.91;54.00;99938.97;10370265;28;20017;-59
2024/03/25 18:52:05;;;;;;;10.38;3.95;;;;;;;16.89;53.29;99930.44;10371536;28;20017;-59
2024/03/25 18:57:05;;;;;;;7.75;3.97;;;;;;;16.89;53.89;99922.41;10370606;28;20025;-59
2024/03/25 19:02:06;;;;;;;6.93;3.53;;;;;;;16.88;53.47;99925.41;10368838;28;20029;-59
2024/03/25 19:07:06;;;;;;;10.90;4.20;;;;;;;16.92;53.94;99919.13;10367581;28;20276;-59
2024/03/25 19:12:07;;;;;;;10.17;4.43;;;;;;;16.93;54.37;99912.69;10368732;28;20046;-58
2024/03/25 19:17:07;;;;;;;9.65;3.75;;;;;;;16.93;54.36;99904.66;10369773;28;20327;-58
2024/03/25 19:22:07;;;;;;;7.63;4.40;;;;;;;17.00;54.23;99906.91;10369330;28;20018;-58
2024/03/25 19:27:08;;;;;;;14.83;4.50;;;;;;;17.03;54.68;99908.19;10369408;28;20017;-57
2024/03/25 19:32:08;;;;;;;7.10;3.73;;;;;;;17.02;53.70;99906.59;10368752;28;20272;-58
2024/03/25 19:37:08;;;;;;;6.53;3.00;;;;;;;17.06;53.56;99910.28;10369233;28;20744;-59
2024/03/25 19:42:09;;;;;;;6.50;3.67;;;;;;;17.08;54.53;99905.41;10368159;28;20368;-59
2024/03/25 19:47:09;;;;;;;9.37;3.57;;;;;;;17.05;53.88;99905.97;10368061;28;20313;-59
2024/03/25 19:52:10;;;;;;;8.88;3.20;;;;;;;17.11;53.65;99905.56;10368841;28;20326;-58
2024/03/25 19:57:11;;;;;;;6.80;3.40;;;;;;;17.14;54.80;99902.28;10367878;28;20768;-59
2024/03/25 20:02:12;;;;;;;7.10;3.60;;;;;;;17.14;54.02;99899.59;10368668;28;20022;-60
2024/03/25 20:07:12;;;;;;;6.63;3.53;;;;;;;17.14;54.05;99896.13;10367978;28;20122;-57
2024/03/25 20:12:13;;;;;;;6.37;3.57;;;;;;;17.13;55.15;99894.53;10368111;28;20052;-57
2024/03/25 20:17:13;;;;;;;5.90;2.72;;;;;;;17.14;54.50;99894.22;10367277;28;20299;-57
2024/03/25 20:22:13;;;;;;;5.07;2.72;;;;;;;17.13;53.66;99891.88;10365954;28;20018;-56
2024/03/25 20:27:14;;;;;;;4.23;2.97;;;;;;;17.13;54.04;99881.16;10366356;28;20018;-56
2024/03/25 20:32:14;;;;;;;5.90;3.08;;;;;;;17.12;54.68;99866.97;10367818;28;20292;-56
2024/03/25 20:37:14;;;;;;;7.00;3.40;;;;;;;17.14;53.92;99864.78;10365405;28;20026;-59
2024/03/25 20:42:15;;;;;;;7.55;3.97;;;;;;;17.13;53.45;99860.50;10366431;28;20296;-57
2024/03/25 20:47:15;;;;;;;6.10;2.60;;;;;;;17.09;53.83;99856.88;10365902;28;20420;-58
2024/03/25 20:52:15;;;;;;;7.20;3.03;;;;;;;17.07;53.89;99864.44;10365402;28;20335;-58
2024/03/25 20:57:16;;;;;;;9.13;3.00;;;;;;;17.07;53.67;99856.41;10367192;28;20662;-59
2024/03/25 21:02:17;;;;;;;5.32;3.65;;;;;;;17.10;53.41;99853.09;10366919;28;20293;-56
2024/03/25 21:07:17;;;;;;;4.93;2.40;;;;;;;17.16;54.64;99843.81;10367490;28;20462;-59
2024/03/25 21:12:17;;;;;;;4.07;2.47;;;;;;;17.16;54.38;99843.03;10366836;28;20040;-58
2024/03/25 21:17:18;;;;;;;5.72;2.90;;;;;;;17.13;53.46;99836.41;10366608;28;20273;-58
2024/03/25 21:22:18;;;;;;;4.43;2.40;;;;;;;17.15;53.73;99836.88;10367146;28;20029;-58
2024/03/25 21:27:19;;;;;;;5.88;2.67;;;;;;;17.15;53.83;99828.84;10366910;28;20283;-58
2024/03/25 21:32:19;;;;;;;3.70;2.03;;;;;;;17.15;54.18;99830.75;10366968;28;20072;-58
2024/03/25 21:37:19;;;;;;;4.33;2.70;;;;;;;17.13;54.24;99827.59;10371632;28;20280;-58
2024/03/25 21:42:20;;;;;;;4.77;2.33;;;;;;;17.15;53.41;99825.38;10374376;28;21127;-59
2024/03/25 21:47:20;;;;;;;4.80;2.70;;;;;;;17.17;54.09;99831.25;10373786;28;20276;-59
2024/03/25 21:52:20;;;;;;;3.58;1.83;;;;;;;17.19;53.28;99818.34;10373577;28;20812;-59
2024/03/25 21:57:21;;;;;;;3.67;2.33;;;;;;;17.19;53.10;99816.44;10373482;28;20030;-58
2024/03/25 22:02:21;;;;;;;5.05;2.13;;;;;;;17.19;53.12;99810.28;10373496;28;20299;-58
2024/03/25 22:07:21;;;;;;;3.17;2.30;;;;;;;17.16;54.30;99806.31;10371700;28;20034;-57
2024/03/25 22:12:22;;;;;;;3.97;2.50;;;;;;;17.20;54.03;99785.09;10371305;28;20296;-57
2024/03/25 22:17:22;;;;;;;3.83;2.10;;;;;;;17.22;53.18;99793.59;10372681;28;20335;-58
2024/03/25 22:22:22;;;;;;;3.73;1.80;;;;;;;17.20;53.90;99790.44;10372855;28;20292;-59
2024/03/25 22:27:23;;;;;;;3.47;1.83;;;;;;;17.18;54.25;99789.97;10372089;28;20037;-58
2024/03/25 22:32:23;;;;;;;4.57;2.20;;;;;;;17.17;53.71;99789.19;10371146;28;20276;-58
2024/03/25 22:37:26;;;;;;;3.37;1.70;;;;;;;17.18;52.96;99781.94;10371673;28;20936;-58
2024/03/25 22:42:26;;;;;;;5.30;2.83;;;;;;;17.16;52.67;99778.75;10371856;28;20327;-58
2024/03/25 22:47:26;;;;;;;3.22;2.13;;;;;;;17.17;52.87;99762.38;10371183;28;20050;-58
2024/03/25 22:52:27;;;;;;;2.70;1.43;;;;;;;17.18;53.58;99761.28;10371610;28;20041;-58
2024/03/25 22:57:27;;;;;;;3.63;2.07;;;;;;;17.19;53.48;99757.50;10369901;28;20265;-58
2024/03/25 23:02:27;;;;;;;3.33;2.13;;;;;;;17.22;53.38;99754.19;10386147;28;20288;-58
2024/03/25 23:07:28;;;;;;;3.53;1.80;;;;;;;17.22;53.29;99742.69;10370649;28;20327;-58